sensor_id;sensor_type;location;lat;lon;timestamp;P1;durP1;ratioP1;P2;durP2;ratioP2
41293;SDS011;27037;52.010;4.446;2023-10-09T00:02:04;24.00;;;13.57;;
41293;SDS011;27037;52.010;4.446;2023-10-09T00:04:35;24.50;;;14.50;;
41293;SDS011;27037;52.010;4.446;2023-10-09T00:07:02;24.02;;;13.77;;
41293;SDS011;27037;52.010;4.446;2023-10-09T00:09:29;22.13;;;14.20;;
41293;SDS011;27037;52.010;4.446;2023-10-09T00:11:58;24.75;;;14.30;;
41293;SDS011;27037;52.010;4.446;2023-10-09T00:14:29;28.15;;;14.05;;
41293;SDS011;27037;52.010;4.446;2023-10-09T00:16:58;27.02;;;14.43;;
41293;SDS011;27037;52.010;4.446;2023-10-09T00:19:46;23.52;;;13.25;;
41293;SDS011;27037;52.010;4.446;2023-10-09T00:22:16;23.75;;;13.43;;
41293;SDS011;27037;52.010;4.446;2023-10-09T00:24:52;25.30;;;13.23;;
41293;SDS011;27037;52.010;4.446;2023-10-09T00:27:37;20.65;;;12.30;;
41293;SDS011;27037;52.010;4.446;2023-10-09T00:30:10;23.13;;;13.18;;
41293;SDS011;27037;52.010;4.446;2023-10-09T00:32:44;26.58;;;13.10;;
41293;SDS011;27037;52.010;4.446;2023-10-09T00:35:32;25.83;;;12.70;;
41293;SDS011;27037;52.010;4.446;2023-10-09T00:38:03;22.23;;;13.10;;
41293;SDS011;27037;52.010;4.446;2023-10-09T00:40:39;26.13;;;13.45;;
41293;SDS011;27037;52.010;4.446;2023-10-09T00:43:12;22.40;;;12.82;;
41293;SDS011;27037;52.010;4.446;2023-10-09T00:45:41;25.42;;;12.38;;
41293;SDS011;27037;52.010;4.446;2023-10-09T00:48:09;23.90;;;12.27;;
41293;SDS011;27037;52.010;4.446;2023-10-09T00:50:39;27.40;;;13.07;;
41293;SDS011;27037;52.010;4.446;2023-10-09T00:53:11;21.67;;;13.10;;
41293;SDS011;27037;52.010;4.446;2023-10-09T00:55:43;27.63;;;13.23;;
41293;SDS011;27037;52.010;4.446;2023-10-09T00:58:20;29.10;;;13.02;;
41293;SDS011;27037;52.010;4.446;2023-10-09T01:00:49;23.30;;;12.88;;
41293;SDS011;27037;52.010;4.446;2023-10-09T01:03:17;24.58;;;13.38;;
41293;SDS011;27037;52.010;4.446;2023-10-09T01:05:48;20.55;;;13.15;;
41293;SDS011;27037;52.010;4.446;2023-10-09T01:08:21;25.90;;;13.63;;
41293;SDS011;27037;52.010;4.446;2023-10-09T01:11:11;22.42;;;12.65;;
41293;SDS011;27037;52.010;4.446;2023-10-09T01:13:54;23.23;;;12.75;;
41293;SDS011;27037;52.010;4.446;2023-10-09T01:16:36;27.48;;;12.55;;
41293;SDS011;27037;52.010;4.446;2023-10-09T01:19:01;25.77;;;12.30;;
41293;SDS011;27037;52.010;4.446;2023-10-09T01:21:37;24.58;;;12.55;;
41293;SDS011;27037;52.010;4.446;2023-10-09T01:24:04;20.52;;;12.23;;
41293;SDS011;27037;52.010;4.446;2023-10-09T01:26:37;20.73;;;12.93;;
41293;SDS011;27037;52.010;4.446;2023-10-09T01:29:05;26.70;;;12.95;;
41293;SDS011;27037;52.010;4.446;2023-10-09T01:31:35;26.25;;;12.68;;
41293;SDS011;27037;52.010;4.446;2023-10-09T01:34:04;26.20;;;13.85;;
41293;SDS011;27037;52.010;4.446;2023-10-09T01:36:35;28.30;;;14.23;;
41293;SDS011;27037;52.010;4.446;2023-10-09T01:39:04;27.48;;;13.45;;
41293;SDS011;27037;52.010;4.446;2023-10-09T01:41:35;25.65;;;13.00;;
41293;SDS011;27037;52.010;4.446;2023-10-09T01:44:11;24.90;;;13.70;;
41293;SDS011;27037;52.010;4.446;2023-10-09T01:46:37;26.58;;;13.48;;
41293;SDS011;27037;52.010;4.446;2023-10-09T01:49:03;24.77;;;13.52;;
41293;SDS011;27037;52.010;4.446;2023-10-09T01:51:35;24.05;;;13.73;;
41293;SDS011;27037;52.010;4.446;2023-10-09T01:54:03;26.20;;;13.70;;
41293;SDS011;27037;52.010;4.446;2023-10-09T01:56:29;21.33;;;12.93;;
41293;SDS011;27037;52.010;4.446;2023-10-09T01:58:54;27.15;;;13.75;;
41293;SDS011;27037;52.010;4.446;2023-10-09T02:01:22;26.45;;;13.35;;
41293;SDS011;27037;52.010;4.446;2023-10-09T02:03:48;24.70;;;12.73;;
41293;SDS011;27037;52.010;4.446;2023-10-09T02:06:16;22.10;;;12.75;;
41293;SDS011;27037;52.010;4.446;2023-10-09T02:08:52;22.58;;;13.23;;
41293;SDS011;27037;52.010;4.446;2023-10-09T02:11:18;23.55;;;12.73;;
41293;SDS011;27037;52.010;4.446;2023-10-09T02:13:52;27.63;;;13.88;;
41293;SDS011;27037;52.010;4.446;2023-10-09T02:16:26;21.85;;;12.70;;
41293;SDS011;27037;52.010;4.446;2023-10-09T02:18:54;28.83;;;12.63;;
41293;SDS011;27037;52.010;4.446;2023-10-09T02:21:24;23.48;;;12.07;;
41293;SDS011;27037;52.010;4.446;2023-10-09T02:24:00;18.63;;;12.23;;
41293;SDS011;27037;52.010;4.446;2023-10-09T02:26:33;26.23;;;12.32;;
41293;SDS011;27037;52.010;4.446;2023-10-09T02:29:24;21.23;;;12.05;;
41293;SDS011;27037;52.010;4.446;2023-10-09T02:31:51;25.50;;;12.40;;
41293;SDS011;27037;52.010;4.446;2023-10-09T02:34:17;19.42;;;12.10;;
41293;SDS011;27037;52.010;4.446;2023-10-09T02:36:52;24.10;;;12.38;;
41293;SDS011;27037;52.010;4.446;2023-10-09T02:39:30;19.67;;;11.48;;
41293;SDS011;27037;52.010;4.446;2023-10-09T02:42:02;26.40;;;11.38;;
41293;SDS011;27037;52.010;4.446;2023-10-09T02:44:39;20.98;;;10.90;;
41293;SDS011;27037;52.010;4.446;2023-10-09T02:47:11;24.48;;;11.15;;
41293;SDS011;27037;52.010;4.446;2023-10-09T02:49:49;23.23;;;10.77;;
41293;SDS011;27037;52.010;4.446;2023-10-09T02:52:15;24.08;;;11.45;;
41293;SDS011;27037;52.010;4.446;2023-10-09T02:54:49;23.80;;;10.93;;
41293;SDS011;27037;52.010;4.446;2023-10-09T02:57:24;24.88;;;11.15;;
41293;SDS011;27037;52.010;4.446;2023-10-09T03:00:11;22.88;;;11.82;;
41293;SDS011;27037;52.010;4.446;2023-10-09T03:02:43;22.90;;;11.48;;
41293;SDS011;27037;52.010;4.446;2023-10-09T03:05:13;22.02;;;11.23;;
41293;SDS011;27037;52.010;4.446;2023-10-09T03:07:39;21.90;;;12.00;;
41293;SDS011;27037;52.010;4.446;2023-10-09T03:10:06;25.52;;;11.38;;
41293;SDS011;27037;52.010;4.446;2023-10-09T03:12:34;25.05;;;11.95;;
41293;SDS011;27037;52.010;4.446;2023-10-09T03:15:00;28.58;;;12.57;;
41293;SDS011;27037;52.010;4.446;2023-10-09T03:17:27;24.98;;;11.95;;
41293;SDS011;27037;52.010;4.446;2023-10-09T03:19:53;24.27;;;12.13;;
41293;SDS011;27037;52.010;4.446;2023-10-09T03:22:19;25.48;;;11.93;;
41293;SDS011;27037;52.010;4.446;2023-10-09T03:24:45;22.08;;;12.40;;
41293;SDS011;27037;52.010;4.446;2023-10-09T03:27:11;30.83;;;12.00;;
41293;SDS011;27037;52.010;4.446;2023-10-09T03:29:39;30.90;;;12.68;;
41293;SDS011;27037;52.010;4.446;2023-10-09T03:32:05;25.23;;;12.68;;
41293;SDS011;27037;52.010;4.446;2023-10-09T03:34:31;24.92;;;12.18;;
41293;SDS011;27037;52.010;4.446;2023-10-09T03:36:57;28.45;;;11.38;;
41293;SDS011;27037;52.010;4.446;2023-10-09T03:39:32;25.73;;;11.88;;
41293;SDS011;27037;52.010;4.446;2023-10-09T03:42:06;24.17;;;11.90;;
41293;SDS011;27037;52.010;4.446;2023-10-09T03:44:36;28.88;;;11.75;;
41293;SDS011;27037;52.010;4.446;2023-10-09T03:47:06;21.27;;;11.57;;
41293;SDS011;27037;52.010;4.446;2023-10-09T03:49:35;25.17;;;11.25;;
41293;SDS011;27037;52.010;4.446;2023-10-09T03:52:04;21.77;;;11.20;;
41293;SDS011;27037;52.010;4.446;2023-10-09T03:54:31;21.15;;;9.90;;
41293;SDS011;27037;52.010;4.446;2023-10-09T03:57:00;23.67;;;10.52;;
41293;SDS011;27037;52.010;4.446;2023-10-09T03:59:26;22.25;;;9.60;;
41293;SDS011;27037;52.010;4.446;2023-10-09T04:01:55;21.60;;;9.77;;
41293;SDS011;27037;52.010;4.446;2023-10-09T04:04:23;18.52;;;8.88;;
41293;SDS011;27037;52.010;4.446;2023-10-09T04:06:50;18.45;;;8.55;;
41293;SDS011;27037;52.010;4.446;2023-10-09T04:09:19;16.67;;;9.10;;
41293;SDS011;27037;52.010;4.446;2023-10-09T04:11:45;19.85;;;8.52;;
41293;SDS011;27037;52.010;4.446;2023-10-09T04:14:14;19.33;;;8.85;;
41293;SDS011;27037;52.010;4.446;2023-10-09T04:16:58;19.58;;;8.07;;
41293;SDS011;27037;52.010;4.446;2023-10-09T04:19:43;16.80;;;8.40;;
41293;SDS011;27037;52.010;4.446;2023-10-09T04:22:36;15.57;;;8.73;;
41293;SDS011;27037;52.010;4.446;2023-10-09T04:25:15;20.23;;;8.50;;
41293;SDS011;27037;52.010;4.446;2023-10-09T04:27:54;20.35;;;8.52;;
41293;SDS011;27037;52.010;4.446;2023-10-09T04:30:39;19.30;;;8.30;;
41293;SDS011;27037;52.010;4.446;2023-10-09T04:33:34;15.93;;;8.07;;
41293;SDS011;27037;52.010;4.446;2023-10-09T04:36:05;21.15;;;8.70;;
41293;SDS011;27037;52.010;4.446;2023-10-09T04:39:01;18.63;;;8.55;;
41293;SDS011;27037;52.010;4.446;2023-10-09T04:41:26;22.90;;;8.82;;
41293;SDS011;27037;52.010;4.446;2023-10-09T04:44:18;17.73;;;8.45;;
41293;SDS011;27037;52.010;4.446;2023-10-09T04:46:48;17.60;;;8.10;;
41293;SDS011;27037;52.010;4.446;2023-10-09T04:52:26;20.25;;;8.85;;
41293;SDS011;27037;52.010;4.446;2023-10-09T04:54:55;18.42;;;8.52;;
41293;SDS011;27037;52.010;4.446;2023-10-09T04:57:29;19.05;;;8.45;;
41293;SDS011;27037;52.010;4.446;2023-10-09T05:00:03;21.92;;;8.18;;
41293;SDS011;27037;52.010;4.446;2023-10-09T05:02:32;20.33;;;8.57;;
41293;SDS011;27037;52.010;4.446;2023-10-09T05:05:02;24.90;;;8.68;;
41293;SDS011;27037;52.010;4.446;2023-10-09T05:08:03;20.50;;;7.80;;
41293;SDS011;27037;52.010;4.446;2023-10-09T05:10:52;19.55;;;8.02;;
41293;SDS011;27037;52.010;4.446;2023-10-09T05:13:28;20.67;;;8.38;;
41293;SDS011;27037;52.010;4.446;2023-10-09T05:16:21;20.00;;;8.20;;
41293;SDS011;27037;52.010;4.446;2023-10-09T05:18:48;20.63;;;8.05;;
41293;SDS011;27037;52.010;4.446;2023-10-09T05:21:52;18.48;;;7.82;;
41293;SDS011;27037;52.010;4.446;2023-10-09T05:24:18;18.20;;;7.85;;
41293;SDS011;27037;52.010;4.446;2023-10-09T05:26:47;18.65;;;7.80;;
41293;SDS011;27037;52.010;4.446;2023-10-09T05:31:57;21.35;;;7.40;;
41293;SDS011;27037;52.010;4.446;2023-10-09T05:34:33;19.15;;;8.10;;
41293;SDS011;27037;52.010;4.446;2023-10-09T05:37:02;15.35;;;7.68;;
41293;SDS011;27037;52.010;4.446;2023-10-09T05:39:47;21.90;;;7.80;;
41293;SDS011;27037;52.010;4.446;2023-10-09T05:42:26;20.70;;;8.27;;
41293;SDS011;27037;52.010;4.446;2023-10-09T05:47:46;27.92;;;8.10;;
41293;SDS011;27037;52.010;4.446;2023-10-09T05:50:25;21.10;;;8.13;;
41293;SDS011;27037;52.010;4.446;2023-10-09T05:52:55;18.58;;;8.00;;
41293;SDS011;27037;52.010;4.446;2023-10-09T05:55:22;24.65;;;7.97;;
41293;SDS011;27037;52.010;4.446;2023-10-09T05:58:15;19.13;;;8.48;;
41293;SDS011;27037;52.010;4.446;2023-10-09T06:00:59;22.88;;;8.20;;
41293;SDS011;27037;52.010;4.446;2023-10-09T06:03:31;22.73;;;7.65;;
41293;SDS011;27037;52.010;4.446;2023-10-09T06:06:19;20.27;;;8.23;;
41293;SDS011;27037;52.010;4.446;2023-10-09T06:09:06;17.92;;;7.72;;
41293;SDS011;27037;52.010;4.446;2023-10-09T06:11:41;19.95;;;8.68;;
41293;SDS011;27037;52.010;4.446;2023-10-09T06:14:15;16.73;;;8.18;;
41293;SDS011;27037;52.010;4.446;2023-10-09T06:16:50;24.02;;;8.48;;
41293;SDS011;27037;52.010;4.446;2023-10-09T06:19:23;24.35;;;8.30;;
41293;SDS011;27037;52.010;4.446;2023-10-09T06:21:59;20.88;;;8.25;;
41293;SDS011;27037;52.010;4.446;2023-10-09T06:24:36;18.90;;;7.78;;
41293;SDS011;27037;52.010;4.446;2023-10-09T06:27:02;18.13;;;7.78;;
41293;SDS011;27037;52.010;4.446;2023-10-09T06:29:31;17.33;;;7.55;;
41293;SDS011;27037;52.010;4.446;2023-10-09T06:32:09;21.95;;;7.95;;
41293;SDS011;27037;52.010;4.446;2023-10-09T06:37:16;18.20;;;8.88;;
41293;SDS011;27037;52.010;4.446;2023-10-09T06:39:48;27.13;;;8.57;;
41293;SDS011;27037;52.010;4.446;2023-10-09T06:42:20;21.08;;;8.02;;
41293;SDS011;27037;52.010;4.446;2023-10-09T06:45:05;18.50;;;7.93;;
41293;SDS011;27037;52.010;4.446;2023-10-09T06:47:35;20.58;;;7.93;;
41293;SDS011;27037;52.010;4.446;2023-10-09T06:50:08;19.85;;;7.93;;
41293;SDS011;27037;52.010;4.446;2023-10-09T06:52:49;21.52;;;8.68;;
41293;SDS011;27037;52.010;4.446;2023-10-09T06:55:37;23.30;;;7.68;;
41293;SDS011;27037;52.010;4.446;2023-10-09T06:58:22;21.77;;;8.15;;
41293;SDS011;27037;52.010;4.446;2023-10-09T07:00:50;20.42;;;8.07;;
41293;SDS011;27037;52.010;4.446;2023-10-09T07:03:34;21.38;;;7.72;;
41293;SDS011;27037;52.010;4.446;2023-10-09T07:06:09;18.98;;;7.38;;
41293;SDS011;27037;52.010;4.446;2023-10-09T07:08:49;23.60;;;7.32;;
41293;SDS011;27037;52.010;4.446;2023-10-09T07:11:47;15.95;;;7.75;;
41293;SDS011;27037;52.010;4.446;2023-10-09T07:14:15;20.33;;;8.30;;
41293;SDS011;27037;52.010;4.446;2023-10-09T07:17:07;19.30;;;7.72;;
41293;SDS011;27037;52.010;4.446;2023-10-09T07:19:52;22.17;;;8.35;;
41293;SDS011;27037;52.010;4.446;2023-10-09T07:22:18;17.10;;;7.68;;
41293;SDS011;27037;52.010;4.446;2023-10-09T07:24:47;16.80;;;8.55;;
41293;SDS011;27037;52.010;4.446;2023-10-09T07:30:06;18.67;;;8.57;;
41293;SDS011;27037;52.010;4.446;2023-10-09T07:32:53;22.08;;;9.20;;
41293;SDS011;27037;52.010;4.446;2023-10-09T07:35:43;24.23;;;9.70;;
41293;SDS011;27037;52.010;4.446;2023-10-09T07:38:25;21.33;;;9.57;;
41293;SDS011;27037;52.010;4.446;2023-10-09T07:40:54;23.73;;;9.68;;
41293;SDS011;27037;52.010;4.446;2023-10-09T07:43:24;21.30;;;10.07;;
41293;SDS011;27037;52.010;4.446;2023-10-09T07:46:01;19.63;;;10.02;;
41293;SDS011;27037;52.010;4.446;2023-10-09T07:48:27;23.08;;;10.52;;
41293;SDS011;27037;52.010;4.446;2023-10-09T07:51:03;22.73;;;10.68;;
41293;SDS011;27037;52.010;4.446;2023-10-09T07:53:36;26.30;;;10.93;;
41293;SDS011;27037;52.010;4.446;2023-10-09T07:56:08;24.35;;;10.20;;
41293;SDS011;27037;52.010;4.446;2023-10-09T07:58:34;21.02;;;10.68;;
41293;SDS011;27037;52.010;4.446;2023-10-09T08:01:11;23.45;;;10.73;;
41293;SDS011;27037;52.010;4.446;2023-10-09T08:03:55;22.30;;;10.83;;
41293;SDS011;27037;52.010;4.446;2023-10-09T08:06:30;19.42;;;10.45;;
41293;SDS011;27037;52.010;4.446;2023-10-09T08:09:07;22.80;;;10.47;;
41293;SDS011;27037;52.010;4.446;2023-10-09T08:14:25;27.77;;;10.57;;
41293;SDS011;27037;52.010;4.446;2023-10-09T08:16:59;18.25;;;9.93;;
41293;SDS011;27037;52.010;4.446;2023-10-09T08:19:40;28.13;;;10.80;;
41293;SDS011;27037;52.010;4.446;2023-10-09T08:22:25;23.60;;;10.30;;
41293;SDS011;27037;52.010;4.446;2023-10-09T08:24:55;24.15;;;9.30;;
41293;SDS011;27037;52.010;4.446;2023-10-09T08:27:25;20.38;;;9.90;;
41293;SDS011;27037;52.010;4.446;2023-10-09T08:30:01;24.45;;;9.70;;
41293;SDS011;27037;52.010;4.446;2023-10-09T08:32:43;20.00;;;8.88;;
41293;SDS011;27037;52.010;4.446;2023-10-09T08:35:32;22.85;;;8.95;;
41293;SDS011;27037;52.010;4.446;2023-10-09T08:38:00;24.20;;;9.57;;
41293;SDS011;27037;52.010;4.446;2023-10-09T08:40:33;21.83;;;8.82;;
41293;SDS011;27037;52.010;4.446;2023-10-09T08:43:08;19.35;;;8.68;;
41293;SDS011;27037;52.010;4.446;2023-10-09T08:45:38;20.77;;;8.55;;
41293;SDS011;27037;52.010;4.446;2023-10-09T08:48:04;20.95;;;8.48;;
41293;SDS011;27037;52.010;4.446;2023-10-09T08:50:32;18.10;;;8.10;;
41293;SDS011;27037;52.010;4.446;2023-10-09T08:52:59;21.70;;;7.90;;
41293;SDS011;27037;52.010;4.446;2023-10-09T08:55:28;15.48;;;7.28;;
41293;SDS011;27037;52.010;4.446;2023-10-09T08:57:54;16.70;;;6.60;;
41293;SDS011;27037;52.010;4.446;2023-10-09T09:00:22;17.85;;;7.18;;
41293;SDS011;27037;52.010;4.446;2023-10-09T09:02:58;15.05;;;6.50;;
41293;SDS011;27037;52.010;4.446;2023-10-09T09:05:25;18.08;;;6.93;;
41293;SDS011;27037;52.010;4.446;2023-10-09T09:07:53;18.23;;;6.20;;
41293;SDS011;27037;52.010;4.446;2023-10-09T09:10:30;14.70;;;6.55;;
41293;SDS011;27037;52.010;4.446;2023-10-09T09:13:01;16.00;;;6.93;;
41293;SDS011;27037;52.010;4.446;2023-10-09T09:15:29;17.05;;;6.70;;
41293;SDS011;27037;52.010;4.446;2023-10-09T09:18:07;15.65;;;7.10;;
41293;SDS011;27037;52.010;4.446;2023-10-09T09:20:42;21.30;;;7.20;;
41293;SDS011;27037;52.010;4.446;2023-10-09T09:23:11;18.33;;;7.00;;
41293;SDS011;27037;52.010;4.446;2023-10-09T09:25:42;16.00;;;6.50;;
41293;SDS011;27037;52.010;4.446;2023-10-09T09:28:09;17.92;;;6.30;;
41293;SDS011;27037;52.010;4.446;2023-10-09T09:30:37;19.13;;;6.82;;
41293;SDS011;27037;52.010;4.446;2023-10-09T09:33:18;13.82;;;6.85;;
41293;SDS011;27037;52.010;4.446;2023-10-09T09:36:04;16.27;;;6.20;;
41293;SDS011;27037;52.010;4.446;2023-10-09T09:38:31;12.38;;;5.68;;
41293;SDS011;27037;52.010;4.446;2023-10-09T09:41:18;16.48;;;5.60;;
41293;SDS011;27037;52.010;4.446;2023-10-09T09:46:17;14.52;;;5.93;;
41293;SDS011;27037;52.010;4.446;2023-10-09T09:48:44;15.00;;;6.40;;
41293;SDS011;27037;52.010;4.446;2023-10-09T09:51:12;13.68;;;6.35;;
41293;SDS011;27037;52.010;4.446;2023-10-09T09:53:42;12.55;;;5.88;;
41293;SDS011;27037;52.010;4.446;2023-10-09T09:56:13;12.13;;;5.65;;
41293;SDS011;27037;52.010;4.446;2023-10-09T09:58:44;17.73;;;6.13;;
41293;SDS011;27037;52.010;4.446;2023-10-09T10:01:18;14.65;;;5.72;;
41293;SDS011;27037;52.010;4.446;2023-10-09T10:03:54;13.40;;;5.63;;
41293;SDS011;27037;52.010;4.446;2023-10-09T10:06:25;14.05;;;6.45;;
41293;SDS011;27037;52.010;4.446;2023-10-09T10:08:54;16.38;;;5.95;;
41293;SDS011;27037;52.010;4.446;2023-10-09T10:14:11;12.93;;;6.22;;
41293;SDS011;27037;52.010;4.446;2023-10-09T10:17:05;13.93;;;5.70;;
41293;SDS011;27037;52.010;4.446;2023-10-09T10:22:42;12.93;;;5.80;;
41293;SDS011;27037;52.010;4.446;2023-10-09T10:25:31;16.75;;;6.60;;
41293;SDS011;27037;52.010;4.446;2023-10-09T10:28:16;12.25;;;6.43;;
41293;SDS011;27037;52.010;4.446;2023-10-09T10:31:01;15.32;;;6.30;;
41293;SDS011;27037;52.010;4.446;2023-10-09T10:36:20;14.57;;;6.07;;
41293;SDS011;27037;52.010;4.446;2023-10-09T10:44:31;14.57;;;6.38;;
41293;SDS011;27037;52.010;4.446;2023-10-09T10:47:07;16.15;;;6.25;;
41293;SDS011;27037;52.010;4.446;2023-10-09T10:49:47;13.80;;;6.07;;
41293;SDS011;27037;52.010;4.446;2023-10-09T10:52:23;13.55;;;6.32;;
41293;SDS011;27037;52.010;4.446;2023-10-09T10:55:07;11.88;;;6.03;;
41293;SDS011;27037;52.010;4.446;2023-10-09T10:57:43;13.98;;;5.88;;
41293;SDS011;27037;52.010;4.446;2023-10-09T11:00:25;15.57;;;6.05;;
41293;SDS011;27037;52.010;4.446;2023-10-09T11:03:22;15.48;;;5.97;;
41293;SDS011;27037;52.010;4.446;2023-10-09T11:05:54;17.00;;;5.95;;
41293;SDS011;27037;52.010;4.446;2023-10-09T11:08:24;12.32;;;6.07;;
41293;SDS011;27037;52.010;4.446;2023-10-09T11:11:09;17.35;;;6.35;;
41293;SDS011;27037;52.010;4.446;2023-10-09T11:13:40;12.90;;;6.07;;
41293;SDS011;27037;52.010;4.446;2023-10-09T11:16:22;11.25;;;5.72;;
41293;SDS011;27037;52.010;4.446;2023-10-09T11:19:07;18.63;;;6.73;;
41293;SDS011;27037;52.010;4.446;2023-10-09T11:21:55;15.82;;;5.63;;
41293;SDS011;27037;52.010;4.446;2023-10-09T11:24:30;16.58;;;6.30;;
41293;SDS011;27037;52.010;4.446;2023-10-09T11:27:01;12.68;;;6.00;;
41293;SDS011;27037;52.010;4.446;2023-10-09T11:29:32;15.95;;;6.05;;
41293;SDS011;27037;52.010;4.446;2023-10-09T11:32:07;12.68;;;6.20;;
41293;SDS011;27037;52.010;4.446;2023-10-09T11:34:42;17.38;;;6.03;;
41293;SDS011;27037;52.010;4.446;2023-10-09T11:37:16;15.00;;;5.70;;
41293;SDS011;27037;52.010;4.446;2023-10-09T11:39:56;16.92;;;5.75;;
41293;SDS011;27037;52.010;4.446;2023-10-09T11:42:23;17.35;;;6.07;;
41293;SDS011;27037;52.010;4.446;2023-10-09T11:45:19;15.30;;;6.40;;
41293;SDS011;27037;52.010;4.446;2023-10-09T11:48:16;14.40;;;5.95;;
41293;SDS011;27037;52.010;4.446;2023-10-09T11:51:12;10.63;;;6.00;;
41293;SDS011;27037;52.010;4.446;2023-10-09T11:53:44;16.67;;;6.28;;
41293;SDS011;27037;52.010;4.446;2023-10-09T11:56:22;17.55;;;6.28;;
41293;SDS011;27037;52.010;4.446;2023-10-09T11:58:51;11.80;;;6.05;;
41293;SDS011;27037;52.010;4.446;2023-10-09T12:01:19;11.82;;;6.07;;
41293;SDS011;27037;52.010;4.446;2023-10-09T12:03:46;17.20;;;6.20;;
41293;SDS011;27037;52.010;4.446;2023-10-09T12:06:16;16.55;;;6.38;;
41293;SDS011;27037;52.010;4.446;2023-10-09T12:08:44;14.93;;;6.28;;
41293;SDS011;27037;52.010;4.446;2023-10-09T12:11:14;15.23;;;6.35;;
41293;SDS011;27037;52.010;4.446;2023-10-09T12:13:48;17.13;;;6.78;;
41293;SDS011;27037;52.010;4.446;2023-10-09T12:16:14;19.05;;;6.20;;
41293;SDS011;27037;52.010;4.446;2023-10-09T12:18:40;18.33;;;6.45;;
41293;SDS011;27037;52.010;4.446;2023-10-09T12:21:07;13.93;;;6.05;;
41293;SDS011;27037;52.010;4.446;2023-10-09T12:23:33;15.02;;;6.43;;
41293;SDS011;27037;52.010;4.446;2023-10-09T12:26:04;17.30;;;6.35;;
41293;SDS011;27037;52.010;4.446;2023-10-09T12:28:30;15.77;;;6.20;;
41293;SDS011;27037;52.010;4.446;2023-10-09T12:30:59;12.32;;;6.10;;
41293;SDS011;27037;52.010;4.446;2023-10-09T12:33:28;14.82;;;6.32;;
41293;SDS011;27037;52.010;4.446;2023-10-09T12:35:54;16.75;;;6.75;;
41293;SDS011;27037;52.010;4.446;2023-10-09T12:38:25;14.00;;;6.35;;
41293;SDS011;27037;52.010;4.446;2023-10-09T12:41:03;14.38;;;6.25;;
41293;SDS011;27037;52.010;4.446;2023-10-09T12:43:40;20.13;;;6.65;;
41293;SDS011;27037;52.010;4.446;2023-10-09T12:46:07;13.10;;;6.15;;
41293;SDS011;27037;52.010;4.446;2023-10-09T12:48:33;17.95;;;6.88;;
41293;SDS011;27037;52.010;4.446;2023-10-09T12:51:00;19.58;;;6.63;;
41293;SDS011;27037;52.010;4.446;2023-10-09T12:53:31;16.48;;;6.78;;
41293;SDS011;27037;52.010;4.446;2023-10-09T12:55:58;15.52;;;6.65;;
41293;SDS011;27037;52.010;4.446;2023-10-09T12:58:23;16.60;;;6.72;;
41293;SDS011;27037;52.010;4.446;2023-10-09T13:00:52;15.63;;;6.53;;
41293;SDS011;27037;52.010;4.446;2023-10-09T13:03:17;14.73;;;6.55;;
41293;SDS011;27037;52.010;4.446;2023-10-09T13:05:50;14.18;;;6.82;;
41293;SDS011;27037;52.010;4.446;2023-10-09T13:10:56;17.10;;;7.30;;
41293;SDS011;27037;52.010;4.446;2023-10-09T13:13:28;12.63;;;7.05;;
41293;SDS011;27037;52.010;4.446;2023-10-09T13:16:04;18.45;;;7.05;;
41293;SDS011;27037;52.010;4.446;2023-10-09T13:18:42;13.35;;;6.80;;
41293;SDS011;27037;52.010;4.446;2023-10-09T13:21:14;16.95;;;6.93;;
41293;SDS011;27037;52.010;4.446;2023-10-09T13:23:43;17.42;;;6.90;;
41293;SDS011;27037;52.010;4.446;2023-10-09T13:26:12;20.25;;;6.90;;
41293;SDS011;27037;52.010;4.446;2023-10-09T13:28:53;18.83;;;7.10;;
41293;SDS011;27037;52.010;4.446;2023-10-09T13:31:20;13.70;;;6.55;;
41293;SDS011;27037;52.010;4.446;2023-10-09T13:33:46;18.45;;;6.95;;
41293;SDS011;27037;52.010;4.446;2023-10-09T13:36:13;15.85;;;6.90;;
41293;SDS011;27037;52.010;4.446;2023-10-09T13:38:54;19.45;;;6.68;;
41293;SDS011;27037;52.010;4.446;2023-10-09T13:41:44;17.23;;;6.65;;
41293;SDS011;27037;52.010;4.446;2023-10-09T13:44:11;15.82;;;6.70;;
41293;SDS011;27037;52.010;4.446;2023-10-09T13:46:36;20.17;;;6.22;;
41293;SDS011;27037;52.010;4.446;2023-10-09T13:49:06;15.93;;;6.72;;
41293;SDS011;27037;52.010;4.446;2023-10-09T13:51:39;22.58;;;6.82;;
41293;SDS011;27037;52.010;4.446;2023-10-09T13:54:15;18.98;;;6.85;;
41293;SDS011;27037;52.010;4.446;2023-10-09T13:56:56;17.77;;;7.20;;
41293;SDS011;27037;52.010;4.446;2023-10-09T13:59:22;17.05;;;6.50;;
41293;SDS011;27037;52.010;4.446;2023-10-09T14:01:50;16.67;;;7.00;;
41293;SDS011;27037;52.010;4.446;2023-10-09T14:04:19;15.95;;;6.30;;
41293;SDS011;27037;52.010;4.446;2023-10-09T14:06:45;20.52;;;6.63;;
41293;SDS011;27037;52.010;4.446;2023-10-09T14:09:12;17.35;;;6.90;;
41293;SDS011;27037;52.010;4.446;2023-10-09T14:11:56;13.60;;;7.20;;
41293;SDS011;27037;52.010;4.446;2023-10-09T14:14:44;15.23;;;7.05;;
41293;SDS011;27037;52.010;4.446;2023-10-09T14:17:13;17.17;;;7.68;;
41293;SDS011;27037;52.010;4.446;2023-10-09T14:19:50;17.38;;;6.28;;
41293;SDS011;27037;52.010;4.446;2023-10-09T14:22:18;16.85;;;6.93;;
41293;SDS011;27037;52.010;4.446;2023-10-09T14:24:45;16.40;;;6.88;;
41293;SDS011;27037;52.010;4.446;2023-10-09T14:27:14;17.08;;;7.55;;
41293;SDS011;27037;52.010;4.446;2023-10-09T14:29:52;17.60;;;7.10;;
41293;SDS011;27037;52.010;4.446;2023-10-09T14:32:23;21.30;;;7.55;;
41293;SDS011;27037;52.010;4.446;2023-10-09T14:34:53;19.50;;;7.13;;
41293;SDS011;27037;52.010;4.446;2023-10-09T14:37:20;18.67;;;7.10;;
41293;SDS011;27037;52.010;4.446;2023-10-09T14:39:46;15.15;;;6.82;;
41293;SDS011;27037;52.010;4.446;2023-10-09T14:42:17;19.20;;;7.50;;
41293;SDS011;27037;52.010;4.446;2023-10-09T14:44:43;18.02;;;7.03;;
41293;SDS011;27037;52.010;4.446;2023-10-09T14:47:10;15.60;;;7.03;;
41293;SDS011;27037;52.010;4.446;2023-10-09T14:49:36;18.88;;;7.60;;
41293;SDS011;27037;52.010;4.446;2023-10-09T14:52:04;18.88;;;7.65;;
41293;SDS011;27037;52.010;4.446;2023-10-09T14:54:33;19.33;;;7.65;;
41293;SDS011;27037;52.010;4.446;2023-10-09T14:56:58;18.73;;;7.38;;
41293;SDS011;27037;52.010;4.446;2023-10-09T14:59:24;20.98;;;7.70;;
41293;SDS011;27037;52.010;4.446;2023-10-09T15:01:50;18.92;;;8.05;;
41293;SDS011;27037;52.010;4.446;2023-10-09T15:04:18;22.15;;;7.88;;
41293;SDS011;27037;52.010;4.446;2023-10-09T15:06:44;22.00;;;7.82;;
41293;SDS011;27037;52.010;4.446;2023-10-09T15:09:14;15.27;;;7.00;;
41293;SDS011;27037;52.010;4.446;2023-10-09T15:11:47;16.40;;;7.13;;
41293;SDS011;27037;52.010;4.446;2023-10-09T15:14:14;24.63;;;8.32;;
41293;SDS011;27037;52.010;4.446;2023-10-09T15:16:40;19.83;;;8.07;;
41293;SDS011;27037;52.010;4.446;2023-10-09T15:19:08;16.15;;;7.80;;
41293;SDS011;27037;52.010;4.446;2023-10-09T15:21:35;18.83;;;7.72;;
41293;SDS011;27037;52.010;4.446;2023-10-09T15:24:09;18.55;;;7.22;;
41293;SDS011;27037;52.010;4.446;2023-10-09T15:26:37;18.42;;;7.95;;
41293;SDS011;27037;52.010;4.446;2023-10-09T15:29:04;20.65;;;7.97;;
41293;SDS011;27037;52.010;4.446;2023-10-09T15:31:31;16.70;;;7.60;;
41293;SDS011;27037;52.010;4.446;2023-10-09T15:33:58;21.48;;;8.73;;
41293;SDS011;27037;52.010;4.446;2023-10-09T15:36:24;19.02;;;7.82;;
41293;SDS011;27037;52.010;4.446;2023-10-09T15:38:53;23.08;;;7.88;;
41293;SDS011;27037;52.010;4.446;2023-10-09T15:41:24;19.67;;;7.68;;
41293;SDS011;27037;52.010;4.446;2023-10-09T15:43:55;25.90;;;8.32;;